sensor_id;sensor_type;location;lat;lon;timestamp;pressure;altitude;pressure_sealevel;temperature;humidity
61963;BME280;47927;42.646;23.096;2023-03-01T00:01:47;92477.31;;;5.63;73.80
61963;BME280;47927;42.646;23.096;2023-03-01T00:04:13;92478.91;;;5.56;74.15
61963;BME280;47927;42.646;23.096;2023-03-01T00:06:39;92470.88;;;5.82;73.24
61963;BME280;47927;42.646;23.096;2023-03-01T00:09:04;92472.06;;;5.84;72.75
61963;BME280;47927;42.646;23.096;2023-03-01T00:11:32;92469.34;;;5.56;73.07
61963;BME280;47927;42.646;23.096;2023-03-01T00:14:01;92463.22;;;5.28;75.10
61963;BME280;47927;42.646;23.096;2023-03-01T00:16:30;92461.66;;;5.14;75.17
61963;BME280;47927;42.646;23.096;2023-03-01T00:18:57;92445.94;;;5.40;74.70
61963;BME280;47927;42.646;23.096;2023-03-01T00:21:23;92438.25;;;5.32;74.41
61963;BME280;47927;42.646;23.096;2023-03-01T00:23:49;92439.06;;;4.90;75.73
61963;BME280;47927;42.646;23.096;2023-03-01T00:26:16;92438.44;;;4.93;76.76
61963;BME280;47927;42.646;23.096;2023-03-01T00:28:44;92448.22;;;5.09;75.85
61963;BME280;47927;42.646;23.096;2023-03-01T00:31:15;92436.81;;;4.89;76.87
61963;BME280;47927;42.646;23.096;2023-03-01T00:33:41;92431.69;;;5.34;74.96
61963;BME280;47927;42.646;23.096;2023-03-01T00:36:07;92438.06;;;5.94;72.86
61963;BME280;47927;42.646;23.096;2023-03-01T00:38:41;92431.50;;;5.39;73.82
61963;BME280;47927;42.646;23.096;2023-03-01T00:41:12;92429.72;;;5.64;73.44
61963;BME280;47927;42.646;23.096;2023-03-01T00:43:38;92428.38;;;5.34;74.25
61963;BME280;47927;42.646;23.096;2023-03-01T00:46:06;92438.38;;;5.35;75.04
61963;BME280;47927;42.646;23.096;2023-03-01T00:48:33;92443.94;;;5.25;75.02
61963;BME280;47927;42.646;23.096;2023-03-01T00:51:12;92448.75;;;5.47;73.68
61963;BME280;47927;42.646;23.096;2023-03-01T00:53:39;92452.66;;;5.66;72.54
61963;BME280;47927;42.646;23.096;2023-03-01T00:56:06;92426.38;;;5.64;72.14
61963;BME280;47927;42.646;23.096;2023-03-01T00:58:32;92440.00;;;5.40;73.03
61963;BME280;47927;42.646;23.096;2023-03-01T01:00:58;92448.66;;;5.23;73.59
61963;BME280;47927;42.646;23.096;2023-03-01T01:03:24;92460.03;;;5.43;73.45
61963;BME280;47927;42.646;23.096;2023-03-01T01:05:51;92463.75;;;5.66;72.13
61963;BME280;47927;42.646;23.096;2023-03-01T01:08:17;92468.38;;;5.73;71.36
61963;BME280;47927;42.646;23.096;2023-03-01T01:10:44;92467.94;;;6.04;70.79
61963;BME280;47927;42.646;23.096;2023-03-01T01:13:10;92466.84;;;6.05;70.14
61963;BME280;47927;42.646;23.096;2023-03-01T01:15:36;92461.34;;;5.49;72.18
61963;BME280;47927;42.646;23.096;2023-03-01T01:18:02;92441.22;;;5.55;71.72
61963;BME280;47927;42.646;23.096;2023-03-01T01:20:28;92426.28;;;5.15;73.39
61963;BME280;47927;42.646;23.096;2023-03-01T01:22:53;92435.91;;;5.39;72.82
61963;BME280;47927;42.646;23.096;2023-03-01T01:25:19;92433.41;;;5.88;71.24
61963;BME280;47927;42.646;23.096;2023-03-01T01:27:45;92429.44;;;6.15;70.41
61963;BME280;47927;42.646;23.096;2023-03-01T01:30:11;92436.22;;;6.84;67.53
61963;BME280;47927;42.646;23.096;2023-03-01T01:32:37;92444.09;;;7.16;65.95
61963;BME280;47927;42.646;23.096;2023-03-01T01:35:02;92443.16;;;7.08;66.34
61963;BME280;47927;42.646;23.096;2023-03-01T01:37:29;92439.75;;;5.78;70.14
61963;BME280;47927;42.646;23.096;2023-03-01T01:39:58;92444.97;;;6.03;70.63
61963;BME280;47927;42.646;23.096;2023-03-01T01:42:25;92445.78;;;6.56;68.22
61963;BME280;47927;42.646;23.096;2023-03-01T01:47:47;92450.34;;;6.34;69.16
61963;BME280;47927;42.646;23.096;2023-03-01T01:50:16;92448.06;;;6.45;68.30
61963;BME280;47927;42.646;23.096;2023-03-01T01:52:44;92425.00;;;5.91;69.82
61963;BME280;47927;42.646;23.096;2023-03-01T01:55:14;92446.44;;;5.91;70.21
61963;BME280;47927;42.646;23.096;2023-03-01T01:58:03;92440.97;;;5.93;70.37
61963;BME280;47927;42.646;23.096;2023-03-01T02:00:31;92432.53;;;5.71;70.70
61963;BME280;47927;42.646;23.096;2023-03-01T02:03:05;92429.63;;;5.85;70.06
61963;BME280;47927;42.646;23.096;2023-03-01T02:05:54;92423.34;;;5.62;71.17
61963;BME280;47927;42.646;23.096;2023-03-01T02:08:21;92416.13;;;5.10;72.58
61963;BME280;47927;42.646;23.096;2023-03-01T02:10:49;92411.69;;;4.98;73.68
61963;BME280;47927;42.646;23.096;2023-03-01T02:13:15;92424.81;;;5.38;72.06
61963;BME280;47927;42.646;23.096;2023-03-01T02:15:41;92412.53;;;5.35;72.42
61963;BME280;47927;42.646;23.096;2023-03-01T02:18:10;92409.13;;;5.56;71.04
61963;BME280;47927;42.646;23.096;2023-03-01T02:23:22;92390.09;;;6.09;69.03
61963;BME280;47927;42.646;23.096;2023-03-01T02:28:32;92413.06;;;5.99;68.99
61963;BME280;47927;42.646;23.096;2023-03-01T02:30:59;92436.06;;;5.09;70.91
61963;BME280;47927;42.646;23.096;2023-03-01T02:33:44;92421.66;;;4.45;74.50
61963;BME280;47927;42.646;23.096;2023-03-01T02:36:17;92413.66;;;4.80;73.83
61963;BME280;47927;42.646;23.096;2023-03-01T02:38:44;92417.31;;;5.00;72.69
61963;BME280;47927;42.646;23.096;2023-03-01T02:41:12;92430.88;;;4.76;73.02
61963;BME280;47927;42.646;23.096;2023-03-01T02:43:40;92414.25;;;4.65;73.88
61963;BME280;47927;42.646;23.096;2023-03-01T02:46:15;92412.88;;;5.00;73.01
61963;BME280;47927;42.646;23.096;2023-03-01T02:48:47;92415.06;;;4.56;73.07
61963;BME280;47927;42.646;23.096;2023-03-01T02:55:10;92398.06;;;4.55;73.42
61963;BME280;47927;42.646;23.096;2023-03-01T02:57:16;92400.91;;;4.42;73.50
61963;BME280;47927;42.646;23.096;2023-03-01T02:59:43;92400.44;;;4.19;75.02
61963;BME280;47927;42.646;23.096;2023-03-01T03:02:23;92393.16;;;4.21;75.35
61963;BME280;47927;42.646;23.096;2023-03-01T03:05:12;92395.53;;;4.05;75.77
61963;BME280;47927;42.646;23.096;2023-03-01T03:07:40;92402.22;;;4.48;74.96
61963;BME280;47927;42.646;23.096;2023-03-01T03:10:13;92423.66;;;4.40;74.14
61963;BME280;47927;42.646;23.096;2023-03-01T03:12:39;92406.22;;;4.16;75.25
61963;BME280;47927;42.646;23.096;2023-03-01T03:15:07;92407.84;;;3.99;76.78
61963;BME280;47927;42.646;23.096;2023-03-01T03:17:38;92413.72;;;4.08;75.87
61963;BME280;47927;42.646;23.096;2023-03-01T03:20:06;92412.59;;;3.88;76.11
61963;BME280;47927;42.646;23.096;2023-03-01T03:22:36;92401.53;;;3.88;76.65
61963;BME280;47927;42.646;23.096;2023-03-01T03:25:02;92413.38;;;4.10;75.43
61963;BME280;47927;42.646;23.096;2023-03-01T03:27:28;92412.13;;;3.86;76.58
61963;BME280;47927;42.646;23.096;2023-03-01T03:29:53;92405.03;;;4.13;76.13
61963;BME280;47927;42.646;23.096;2023-03-01T03:32:19;92387.47;;;4.06;75.13
61963;BME280;47927;42.646;23.096;2023-03-01T03:34:44;92394.03;;;4.46;74.46
61963;BME280;47927;42.646;23.096;2023-03-01T03:37:10;92390.34;;;5.22;71.74
61963;BME280;47927;42.646;23.096;2023-03-01T03:39:55;92398.88;;;5.47;70.03
61963;BME280;47927;42.646;23.096;2023-03-01T03:42:21;92406.00;;;5.05;71.62
61963;BME280;47927;42.646;23.096;2023-03-01T03:44:48;92405.88;;;4.26;73.88
61963;BME280;47927;42.646;23.096;2023-03-01T03:47:13;92415.22;;;4.30;75.23
61963;BME280;47927;42.646;23.096;2023-03-01T03:49:39;92415.06;;;3.76;76.69
61963;BME280;47927;42.646;23.096;2023-03-01T03:52:04;92414.78;;;3.78;76.79
61963;BME280;47927;42.646;23.096;2023-03-01T03:54:30;92417.44;;;4.20;76.35
61963;BME280;47927;42.646;23.096;2023-03-01T03:56:55;92420.53;;;4.97;72.27
61963;BME280;47927;42.646;23.096;2023-03-01T03:59:21;92426.84;;;4.16;74.66
61963;BME280;47927;42.646;23.096;2023-03-01T04:01:46;92423.19;;;4.67;74.03
61963;BME280;47927;42.646;23.096;2023-03-01T04:04:30;92450.16;;;4.70;72.04
61963;BME280;47927;42.646;23.096;2023-03-01T04:06:56;92424.63;;;4.77;72.85
61963;BME280;47927;42.646;23.096;2023-03-01T04:09:21;92425.31;;;4.86;72.40
61963;BME280;47927;42.646;23.096;2023-03-01T04:11:47;92420.41;;;5.06;71.57
61963;BME280;47927;42.646;23.096;2023-03-01T04:14:12;92417.50;;;4.74;72.71
61963;BME280;47927;42.646;23.096;2023-03-01T04:16:38;92423.44;;;4.74;72.92
61963;BME280;47927;42.646;23.096;2023-03-01T04:19:03;92423.38;;;4.62;73.60
61963;BME280;47927;42.646;23.096;2023-03-01T04:21:31;92422.69;;;4.74;73.95
61963;BME280;47927;42.646;23.096;2023-03-01T04:23:57;92438.78;;;4.92;72.86
61963;BME280;47927;42.646;23.096;2023-03-01T04:26:22;92417.31;;;4.79;72.92
61963;BME280;47927;42.646;23.096;2023-03-01T04:28:48;92416.06;;;4.64;73.64
61963;BME280;47927;42.646;23.096;2023-03-01T04:31:17;92431.41;;;4.82;73.02
61963;BME280;47927;42.646;23.096;2023-03-01T04:33:54;92420.06;;;4.11;75.89
61963;BME280;47927;42.646;23.096;2023-03-01T04:36:22;92408.50;;;4.17;75.47
61963;BME280;47927;42.646;23.096;2023-03-01T04:38:48;92413.56;;;4.34;75.04
61963;BME280;47927;42.646;23.096;2023-03-01T04:41:16;92411.59;;;4.52;74.57
61963;BME280;47927;42.646;23.096;2023-03-01T04:43:42;92412.06;;;5.09;72.52
61963;BME280;47927;42.646;23.096;2023-03-01T04:46:11;92415.00;;;5.32;70.65
61963;BME280;47927;42.646;23.096;2023-03-01T04:48:38;92406.75;;;4.72;73.12
61963;BME280;47927;42.646;23.096;2023-03-01T04:51:05;92419.47;;;4.35;74.30
61963;BME280;47927;42.646;23.096;2023-03-01T04:53:31;92426.00;;;4.53;73.71
61963;BME280;47927;42.646;23.096;2023-03-01T04:55:58;92414.09;;;4.19;74.98
61963;BME280;47927;42.646;23.096;2023-03-01T04:58:26;92416.44;;;4.33;75.39
61963;BME280;47927;42.646;23.096;2023-03-01T05:00:53;92420.59;;;4.25;74.60
61963;BME280;47927;42.646;23.096;2023-03-01T05:03:20;92417.75;;;4.60;74.16
61963;BME280;47927;42.646;23.096;2023-03-01T05:05:47;92417.53;;;5.07;73.00
61963;BME280;47927;42.646;23.096;2023-03-01T05:08:14;92421.03;;;5.23;71.28
61963;BME280;47927;42.646;23.096;2023-03-01T05:10:53;92427.47;;;4.96;72.53
61963;BME280;47927;42.646;23.096;2023-03-01T05:13:20;92431.56;;;4.64;73.94
61963;BME280;47927;42.646;23.096;2023-03-01T05:15:57;92432.63;;;4.63;73.83
61963;BME280;47927;42.646;23.096;2023-03-01T05:18:27;92434.06;;;4.73;73.89
61963;BME280;47927;42.646;23.096;2023-03-01T05:21:04;92434.91;;;5.31;72.07
61963;BME280;47927;42.646;23.096;2023-03-01T05:23:32;92429.19;;;4.92;72.60
61963;BME280;47927;42.646;23.096;2023-03-01T05:25:59;92442.00;;;4.68;73.86
61963;BME280;47927;42.646;23.096;2023-03-01T05:28:25;92438.34;;;4.48;74.39
61963;BME280;47927;42.646;23.096;2023-03-01T05:30:51;92429.28;;;4.84;73.90
61963;BME280;47927;42.646;23.096;2023-03-01T05:33:17;92438.78;;;5.25;71.85
61963;BME280;47927;42.646;23.096;2023-03-01T05:35:44;92433.06;;;4.86;72.21
61963;BME280;47927;42.646;23.096;2023-03-01T05:38:11;92437.34;;;4.82;72.79
61963;BME280;47927;42.646;23.096;2023-03-01T05:40:40;92428.28;;;4.76;72.63
61963;BME280;47927;42.646;23.096;2023-03-01T05:43:06;92433.91;;;4.90;73.31
61963;BME280;47927;42.646;23.096;2023-03-01T05:45:32;92439.81;;;5.12;71.20
61963;BME280;47927;42.646;23.096;2023-03-01T05:47:59;92442.63;;;4.65;73.33
61963;BME280;47927;42.646;23.096;2023-03-01T05:50:27;92440.78;;;4.86;72.50
61963;BME280;47927;42.646;23.096;2023-03-01T05:53:03;92450.78;;;5.09;72.33
61963;BME280;47927;42.646;23.096;2023-03-01T05:55:31;92436.91;;;5.59;70.04
61963;BME280;47927;42.646;23.096;2023-03-01T05:58:06;92454.94;;;5.34;71.12
61963;BME280;47927;42.646;23.096;2023-03-01T06:00:50;92463.00;;;4.99;71.64
61963;BME280;47927;42.646;23.096;2023-03-01T06:03:17;92448.78;;;4.51;73.13
61963;BME280;47927;42.646;23.096;2023-03-01T06:05:43;92473.47;;;4.61;74.00
61963;BME280;47927;42.646;23.096;2023-03-01T06:08:10;92464.03;;;5.53;70.91
61963;BME280;47927;42.646;23.096;2023-03-01T06:10:36;92479.56;;;4.98;72.41
61963;BME280;47927;42.646;23.096;2023-03-01T06:13:02;92475.28;;;4.82;73.03
61963;BME280;47927;42.646;23.096;2023-03-01T06:15:27;92472.88;;;5.18;71.57
61963;BME280;47927;42.646;23.096;2023-03-01T06:17:54;92475.09;;;4.66;72.97
61963;BME280;47927;42.646;23.096;2023-03-01T06:20:24;92488.34;;;4.85;72.27
61963;BME280;47927;42.646;23.096;2023-03-01T06:22:50;92470.97;;;4.73;72.82
61963;BME280;47927;42.646;23.096;2023-03-01T06:25:21;92483.44;;;5.25;71.61
61963;BME280;47927;42.646;23.096;2023-03-01T06:27:48;92478.50;;;5.54;70.31
61963;BME280;47927;42.646;23.096;2023-03-01T06:30:19;92491.53;;;5.57;69.98
61963;BME280;47927;42.646;23.096;2023-03-01T06:32:48;92482.06;;;5.74;69.34
61963;BME280;47927;42.646;23.096;2023-03-01T06:35:16;92488.97;;;5.03;71.31
61963;BME280;47927;42.646;23.096;2023-03-01T06:37:46;92490.84;;;5.15;71.27
61963;BME280;47927;42.646;23.096;2023-03-01T06:40:12;92479.13;;;5.51;69.92
61963;BME280;47927;42.646;23.096;2023-03-01T06:42:40;92486.31;;;5.12;70.85
61963;BME280;47927;42.646;23.096;2023-03-01T06:45:07;92495.19;;;5.56;70.18
61963;BME280;47927;42.646;23.096;2023-03-01T06:47:33;92487.97;;;5.62;69.39
61963;BME280;47927;42.646;23.096;2023-03-01T06:50:00;92492.75;;;5.39;70.63
61963;BME280;47927;42.646;23.096;2023-03-01T06:52:25;92491.00;;;5.76;68.72
61963;BME280;47927;42.646;23.096;2023-03-01T06:54:51;92497.59;;;5.40;69.89
61963;BME280;47927;42.646;23.096;2023-03-01T06:57:17;92497.19;;;5.84;69.35
61963;BME280;47927;42.646;23.096;2023-03-01T06:59:42;92488.91;;;6.64;66.42
61963;BME280;47927;42.646;23.096;2023-03-01T07:02:11;92484.28;;;6.45;65.92
61963;BME280;47927;42.646;23.096;2023-03-01T07:04:39;92490.31;;;6.00;67.55
61963;BME280;47927;42.646;23.096;2023-03-01T07:07:05;92492.72;;;6.54;66.32
61963;BME280;47927;42.646;23.096;2023-03-01T07:09:30;92477.94;;;6.55;65.94
61963;BME280;47927;42.646;23.096;2023-03-01T07:11:56;92488.72;;;6.45;66.03
61963;BME280;47927;42.646;23.096;2023-03-01T07:14:22;92493.78;;;6.53;65.74
61963;BME280;47927;42.646;23.096;2023-03-01T07:16:49;92484.81;;;6.51;66.02
61963;BME280;47927;42.646;23.096;2023-03-01T07:19:15;92489.06;;;6.31;66.84
61963;BME280;47927;42.646;23.096;2023-03-01T07:21:40;92484.28;;;6.57;65.17
61963;BME280;47927;42.646;23.096;2023-03-01T07:24:07;92490.16;;;6.95;64.61
61963;BME280;47927;42.646;23.096;2023-03-01T07:26:32;92470.03;;;6.51;64.79
61963;BME280;47927;42.646;23.096;2023-03-01T07:28:59;92486.75;;;6.54;65.45
61963;BME280;47927;42.646;23.096;2023-03-01T07:31:25;92494.47;;;6.91;64.32
61963;BME280;47927;42.646;23.096;2023-03-01T07:33:54;92494.59;;;7.22;63.52
61963;BME280;47927;42.646;23.096;2023-03-01T07:36:20;92486.59;;;7.27;63.25
61963;BME280;47927;42.646;23.096;2023-03-01T07:38:45;92490.38;;;7.30;62.82
61963;BME280;47927;42.646;23.096;2023-03-01T07:41:11;92486.75;;;6.78;64.71
61963;BME280;47927;42.646;23.096;2023-03-01T07:43:36;92481.50;;;7.03;63.94
61963;BME280;47927;42.646;23.096;2023-03-01T07:46:02;92465.69;;;7.20;62.89
61963;BME280;47927;42.646;23.096;2023-03-01T07:48:29;92464.97;;;7.36;62.72
61963;BME280;47927;42.646;23.096;2023-03-01T07:50:59;92480.75;;;7.30;62.61
61963;BME280;47927;42.646;23.096;2023-03-01T07:53:25;92482.81;;;7.53;61.95
61963;BME280;47927;42.646;23.096;2023-03-01T07:56:01;92486.16;;;7.53;61.37
61963;BME280;47927;42.646;23.096;2023-03-01T07:58:26;92474.97;;;7.65;61.60
61963;BME280;47927;42.646;23.096;2023-03-01T08:00:52;92468.47;;;7.87;60.88
61963;BME280;47927;42.646;23.096;2023-03-01T08:03:17;92467.13;;;8.25;59.85
61963;BME280;47927;42.646;23.096;2023-03-01T08:05:43;92468.88;;;7.89;60.35
61963;BME280;47927;42.646;23.096;2023-03-01T08:08:08;92472.31;;;7.34;62.35
61963;BME280;47927;42.646;23.096;2023-03-01T08:10:34;92471.47;;;7.73;61.07
61963;BME280;47927;42.646;23.096;2023-03-01T08:12:59;92471.31;;;7.98;60.74
61963;BME280;47927;42.646;23.096;2023-03-01T08:15:24;92478.75;;;7.84;60.37
61963;BME280;47927;42.646;23.096;2023-03-01T08:17:50;92470.31;;;7.71;61.40
61963;BME280;47927;42.646;23.096;2023-03-01T08:20:16;92470.38;;;8.22;59.66
61963;BME280;47927;42.646;23.096;2023-03-01T08:22:42;92474.81;;;8.53;58.10
61963;BME280;47927;42.646;23.096;2023-03-01T08:25:07;92481.78;;;8.84;57.64
61963;BME280;47927;42.646;23.096;2023-03-01T08:27:33;92477.75;;;8.52;58.27
61963;BME280;47927;42.646;23.096;2023-03-01T08:29:59;92464.34;;;8.85;57.19
61963;BME280;47927;42.646;23.096;2023-03-01T08:32:24;92475.00;;;8.80;57.57
61963;BME280;47927;42.646;23.096;2023-03-01T08:34:50;92471.66;;;8.79;57.48
61963;BME280;47927;42.646;23.096;2023-03-01T08:37:15;92469.34;;;8.94;57.13
61963;BME280;47927;42.646;23.096;2023-03-01T08:39:41;92425.09;;;7.88;58.75
61963;BME280;47927;42.646;23.096;2023-03-01T08:42:06;92472.97;;;7.59;60.50
61963;BME280;47927;42.646;23.096;2023-03-01T08:44:32;92473.56;;;8.47;59.21
61963;BME280;47927;42.646;23.096;2023-03-01T08:46:57;92476.03;;;8.75;58.11
61963;BME280;47927;42.646;23.096;2023-03-01T08:49:23;92480.22;;;8.99;56.94
61963;BME280;47927;42.646;23.096;2023-03-01T08:51:49;92482.88;;;8.48;57.99
61963;BME280;47927;42.646;23.096;2023-03-01T08:54:18;92446.97;;;7.87;60.08
61963;BME280;47927;42.646;23.096;2023-03-01T08:56:44;92474.56;;;8.11;59.57
61963;BME280;47927;42.646;23.096;2023-03-01T08:59:11;92468.44;;;7.27;61.68
61963;BME280;47927;42.646;23.096;2023-03-01T09:01:36;92471.56;;;8.09;59.81
61963;BME280;47927;42.646;23.096;2023-03-01T09:04:03;92468.13;;;8.05;59.83
61963;BME280;47927;42.646;23.096;2023-03-01T09:06:32;92468.53;;;8.54;58.78
61963;BME280;47927;42.646;23.096;2023-03-01T09:09:02;92458.66;;;7.96;59.86
61963;BME280;47927;42.646;23.096;2023-03-01T09:11:28;92455.25;;;8.24;59.13
61963;BME280;47927;42.646;23.096;2023-03-01T09:13:54;92458.59;;;8.40;58.94
61963;BME280;47927;42.646;23.096;2023-03-01T09:16:20;92460.00;;;7.74;59.66
61963;BME280;47927;42.646;23.096;2023-03-01T09:18:54;92467.44;;;8.55;59.04
61963;BME280;47927;42.646;23.096;2023-03-01T09:21:21;92468.47;;;8.51;58.54
61963;BME280;47927;42.646;23.096;2023-03-01T09:23:48;92459.38;;;8.60;57.76
61963;BME280;47927;42.646;23.096;2023-03-01T09:26:24;92466.34;;;8.56;57.26
61963;BME280;47927;42.646;23.096;2023-03-01T09:28:53;92469.06;;;8.79;57.86
61963;BME280;47927;42.646;23.096;2023-03-01T09:31:21;92465.56;;;8.72;57.73
61963;BME280;47927;42.646;23.096;2023-03-01T09:33:48;92461.38;;;8.67;57.75
61963;BME280;47927;42.646;23.096;2023-03-01T09:36:17;92453.91;;;8.65;56.91
61963;BME280;47927;42.646;23.096;2023-03-01T09:38:44;92455.56;;;8.22;58.12
61963;BME280;47927;42.646;23.096;2023-03-01T09:43:47;92441.72;;;8.85;56.63
61963;BME280;47927;42.646;23.096;2023-03-01T09:46:14;92455.25;;;9.53;55.25
61963;BME280;47927;42.646;23.096;2023-03-01T09:48:57;92444.47;;;9.54;54.41
61963;BME280;47927;42.646;23.096;2023-03-01T09:51:33;92447.00;;;9.70;53.64
61963;BME280;47927;42.646;23.096;2023-03-01T09:54:01;92440.41;;;8.95;55.83
61963;BME280;47927;42.646;23.096;2023-03-01T09:56:33;92445.13;;;8.70;56.42
61963;BME280;47927;42.646;23.096;2023-03-01T09:59:20;92445.03;;;8.66;56.68
61963;BME280;47927;42.646;23.096;2023-03-01T10:09:37;92440.13;;;9.39;54.91
61963;BME280;47927;42.646;23.096;2023-03-01T10:12:06;92432.06;;;9.67;53.89
61963;BME280;47927;42.646;23.096;2023-03-01T10:14:35;92424.69;;;10.19;53.52
61963;BME280;47927;42.646;23.096;2023-03-01T10:17:07;92435.06;;;10.15;53.17
61963;BME280;47927;42.646;23.096;2023-03-01T10:19:45;92425.06;;;9.94;53.43
61963;BME280;47927;42.646;23.096;2023-03-01T10:22:24;92433.63;;;9.72;53.77
61963;BME280;47927;42.646;23.096;2023-03-01T10:24:54;92433.28;;;11.03;51.72
61963;BME280;47927;42.646;23.096;2023-03-01T10:27:25;92423.69;;;11.10;50.50
61963;BME280;47927;42.646;23.096;2023-03-01T10:30:32;92446.41;;;11.44;49.18
61963;BME280;47927;42.646;23.096;2023-03-01T10:32:59;92406.78;;;12.16;47.67
61963;BME280;47927;42.646;23.096;2023-03-01T10:35:31;92424.47;;;13.03;45.21
61963;BME280;47927;42.646;23.096;2023-03-01T10:40:27;92421.59;;;11.23;49.20
61963;BME280;47927;42.646;23.096;2023-03-01T10:42:53;92431.63;;;10.91;49.53
61963;BME280;47927;42.646;23.096;2023-03-01T10:45:36;92414.53;;;9.41;53.81
61963;BME280;47927;42.646;23.096;2023-03-01T10:50:39;92399.19;;;10.28;52.33
61963;BME280;47927;42.646;23.096;2023-03-01T10:53:26;92411.88;;;10.56;51.37
61963;BME280;47927;42.646;23.096;2023-03-01T10:58:28;92423.81;;;10.61;51.13
61963;BME280;47927;42.646;23.096;2023-03-01T11:01:00;92425.06;;;10.44;51.73
61963;BME280;47927;42.646;23.096;2023-03-01T11:03:35;92418.03;;;10.21;52.26
61963;BME280;47927;42.646;23.096;2023-03-01T11:06:04;92418.72;;;9.92;53.55
61963;BME280;47927;42.646;23.096;2023-03-01T11:14:20;92405.41;;;9.08;55.52
61963;BME280;47927;42.646;23.096;2023-03-01T11:16:48;92403.16;;;9.72;53.80
61963;BME280;47927;42.646;23.096;2023-03-01T11:19:19;92402.34;;;9.68;53.63
61963;BME280;47927;42.646;23.096;2023-03-01T11:21:55;92399.63;;;9.84;53.90
61963;BME280;47927;42.646;23.096;2023-03-01T11:24:41;92402.72;;;10.16;52.74
61963;BME280;47927;42.646;23.096;2023-03-01T11:27:16;92392.28;;;10.39;52.96
61963;BME280;47927;42.646;23.096;2023-03-01T11:29:45;92392.91;;;10.06;53.24
61963;BME280;47927;42.646;23.096;2023-03-01T11:32:17;92396.41;;;9.68;53.57
61963;BME280;47927;42.646;23.096;2023-03-01T11:34:54;92384.72;;;9.81;54.10
61963;BME280;47927;42.646;23.096;2023-03-01T11:37:31;92375.50;;;9.87;54.21
61963;BME280;47927;42.646;23.096;2023-03-01T11:40:12;92370.22;;;10.07;53.03
61963;BME280;47927;42.646;23.096;2023-03-01T11:48:37;92368.59;;;10.82;52.29
61963;BME280;47927;42.646;23.096;2023-03-01T11:51:24;92374.72;;;10.97;50.51
61963;BME280;47927;42.646;23.096;2023-03-01T11:56:35;92355.25;;;11.61;49.19
61963;BME280;47927;42.646;23.096;2023-03-01T12:10:20;92354.88;;;9.75;53.92
61963;BME280;47927;42.646;23.096;2023-03-01T12:15:50;92354.75;;;11.08;51.05
61963;BME280;47927;42.646;23.096;2023-03-01T12:26:38;92323.84;;;9.63;54.64
61963;BME280;47927;42.646;23.096;2023-03-01T12:34:43;92349.28;;;10.26;53.03
61963;BME280;47927;42.646;23.096;2023-03-01T12:39:51;92345.13;;;9.68;53.89
61963;BME280;47927;42.646;23.096;2023-03-01T12:45:31;92344.34;;;9.22;55.89
61963;BME280;47927;42.646;23.096;2023-03-01T12:50:51;92348.59;;;9.76;54.36
61963;BME280;47927;42.646;23.096;2023-03-01T12:53:22;92345.44;;;9.90;53.31
61963;BME280;47927;42.646;23.096;2023-03-01T12:55:50;92357.91;;;9.77;53.54
61963;BME280;47927;42.646;23.096;2023-03-01T13:07:11;92352.78;;;8.73;55.98
61963;BME280;47927;42.646;23.096;2023-03-01T13:09:54;92330.91;;;9.16;55.49
61963;BME280;47927;42.646;23.096;2023-03-01T13:23:09;92353.69;;;10.48;52.19
61963;BME280;47927;42.646;23.096;2023-03-01T13:32:23;92323.66;;;9.25;55.29
61963;BME280;47927;42.646;23.096;2023-03-01T13:34:51;92344.88;;;9.77;54.14
61963;BME280;47927;42.646;23.096;2023-03-01T13:37:32;92349.81;;;9.82;53.11
61963;BME280;47927;42.646;23.096;2023-03-01T13:39:58;92341.94;;;9.09;55.64
61963;BME280;47927;42.646;23.096;2023-03-01T13:42:38;92343.69;;;9.71;54.62
61963;BME280;47927;42.646;23.096;2023-03-01T13:50:42;92334.34;;;10.23;52.18
61963;BME280;47927;42.646;23.096;2023-03-01T13:53:16;92313.13;;;10.17;51.99
61963;BME280;47927;42.646;23.096;2023-03-01T13:55:45;92327.09;;;10.62;51.15
61963;BME280;47927;42.646;23.096;2023-03-01T13:58:20;92331.59;;;11.03;50.04
61963;BME280;47927;42.646;23.096;2023-03-01T14:00:47;92325.78;;;10.49;51.49
61963;BME280;47927;42.646;23.096;2023-03-01T14:03:18;92326.59;;;9.47;54.14
61963;BME280;47927;42.646;23.096;2023-03-01T14:05:59;92317.59;;;8.98;55.93
61963;BME280;47927;42.646;23.096;2023-03-01T14:08:26;92316.47;;;9.19;55.68
61963;BME280;47927;42.646;23.096;2023-03-01T14:13:39;92321.88;;;8.67;57.15
61963;BME280;47927;42.646;23.096;2023-03-01T14:19:17;92316.16;;;8.04;59.16
61963;BME280;47927;42.646;23.096;2023-03-01T14:21:44;92323.25;;;8.42;58.66
61963;BME280;47927;42.646;23.096;2023-03-01T14:24:18;92288.78;;;8.06;58.69
61963;BME280;47927;42.646;23.096;2023-03-01T14:26:45;92293.41;;;8.16;58.66
61963;BME280;47927;42.646;23.096;2023-03-01T14:29:32;92309.16;;;7.88;59.99
61963;BME280;47927;42.646;23.096;2023-03-01T14:32:09;92315.63;;;7.63;61.12
61963;BME280;47927;42.646;23.096;2023-03-01T14:34:35;92309.06;;;7.85;61.24
61963;BME280;47927;42.646;23.096;2023-03-01T14:40:02;92323.06;;;7.64;61.77
61963;BME280;47927;42.646;23.096;2023-03-01T14:42:35;92319.53;;;7.88;60.98
61963;BME280;47927;42.646;23.096;2023-03-01T14:45:02;92313.41;;;8.51;59.16
61963;BME280;47927;42.646;23.096;2023-03-01T14:47:34;92305.88;;;8.85;57.82
61963;BME280;47927;42.646;23.096;2023-03-01T14:50:07;92307.94;;;8.76;57.86
61963;BME280;47927;42.646;23.096;2023-03-01T14:52:36;92311.03;;;9.27;56.56
61963;BME280;47927;42.646;23.096;2023-03-01T14:55:05;92315.63;;;8.92;56.86
61963;BME280;47927;42.646;23.096;2023-03-01T14:57:32;92310.06;;;8.70;57.76
61963;BME280;47927;42.646;23.096;2023-03-01T14:59:59;92293.44;;;8.55;57.59
61963;BME280;47927;42.646;23.096;2023-03-01T15:02:30;92311.31;;;8.21;58.96
61963;BME280;47927;42.646;23.096;2023-03-01T15:04:59;92291.09;;;7.76;59.95
61963;BME280;47927;42.646;23.096;2023-03-01T15:07:38;92309.66;;;8.33;59.02
61963;BME280;47927;42.646;23.096;2023-03-01T15:10:07;92302.56;;;8.30;59.11
61963;BME280;47927;42.646;23.096;2023-03-01T15:12:38;92308.72;;;8.80;57.71